Terminal Aerodrome Forecast
Issued by NWS

Home | Current Version | Previous Version | Text Only | Print | Product List | Glossary On
Versions: 1 2 3 4 5 6 7 8 9 10 11 12 13 14
000
FTUS41 KBOX 180535
TAFBAF
TAF
KBAF 180535Z 1806/1906 00000KT P6SM OVC050
     FM180800 00000KT 3SM -SN OVC025
     FM181400 00000KT P6SM OVC015
     FM182300 VRB03KT P6SM OVC035=

USA.gov is the U.S. government's official web portal to all federal, state and local government web resources and services.